Time;durP1;ratioP1;P1;durP2;ratioP2;P2;SDS_P1;SDS_P2;PMS_P1;PMS_P2;Temp;Humidity;BMP_temperature;BMP_pressure;BME280_temperature;BME280_humidity;BME280_pressure;Samples;Min_cycle;Max_cycle;Signal;HPM_P1;HPM_P2
2023/07/01 00:01:20;;;;;;;4.13;3.85;;;;;;;;;;10272502;28;20567;-73
2023/07/01 00:06:21;;;;;;;4.90;4.45;;;;;;;;;;10291235;28;20231;-72
2023/07/01 00:11:22;;;;;;;6.70;4.20;;;;;;;;;;10297756;28;20225;-72
2023/07/01 00:16:23;;;;;;;5.63;5.03;;;;;;;;;;10300401;28;20228;-72
2023/07/01 00:21:24;;;;;;;5.35;4.85;;;;;;;;;;10296422;28;20217;-72
2023/07/01 00:26:25;;;;;;;5.10;4.70;;;;;;;;;;10288084;28;20221;-73
2023/07/01 00:31:26;;;;;;;4.93;4.60;;;;;;;;;;10300125;28;20213;-72
2023/07/01 00:36:27;;;;;;;4.45;4.20;;;;;;;;;;10301591;28;20232;-73
2023/07/01 00:41:28;;;;;;;5.10;4.85;;;;;;;;;;10277134;28;20216;-72
2023/07/01 00:46:29;;;;;;;8.38;4.45;;;;;;;;;;10290723;28;21460;-73
2023/07/01 00:51:30;;;;;;;4.65;4.10;;;;;;;;;;10306394;28;20764;-73
2023/07/01 00:56:31;;;;;;;4.18;3.97;;;;;;;;;;10304047;28;20232;-73
2023/07/01 01:01:35;;;;;;;5.00;4.32;;;;;;;;;;10286289;28;20252;-72
2023/07/01 01:06:43;;;;;;;6.13;4.13;;;;;;;;;;10297477;28;20312;-74
2023/07/01 01:11:46;;;;;;;5.05;4.68;;;;;;;;;;10295485;28;20222;-72
2023/07/01 01:16:49;;;;;;;4.25;4.00;;;;;;;;;;10294328;28;20267;-73
2023/07/01 01:21:55;;;;;;;4.38;4.07;;;;;;;;;;10279995;28;20240;-74
2023/07/01 01:26:59;;;;;;;5.25;4.53;;;;;;;;;;10297899;28;20600;-73
2023/07/01 01:32:00;;;;;;;4.78;4.35;;;;;;;;;;10281486;28;20220;-75
2023/07/01 01:37:04;;;;;;;4.05;3.70;;;;;;;;;;10260684;28;20681;-76
2023/07/01 01:42:10;;;;;;;8.38;4.35;;;;;;;;;;10268276;28;20311;-75
2023/07/01 01:47:12;;;;;;;4.65;4.38;;;;;;;;;;10282310;28;20304;-76
2023/07/01 01:52:15;;;;;;;4.30;3.72;;;;;;;;;;10273452;28;20220;-75
2023/07/01 01:57:17;;;;;;;4.32;4.00;;;;;;;;;;10270980;28;20224;-75
2023/07/01 02:02:18;;;;;;;5.65;4.13;;;;;;;;;;10271303;28;20578;-74
2023/07/01 02:07:19;;;;;;;3.95;3.83;;;;;;;;;;10280170;28;20296;-75
2023/07/01 02:12:20;;;;;;;5.82;4.78;;;;;;;;;;10282804;28;20220;-74
2023/07/01 02:17:21;;;;;;;5.90;4.20;;;;;;;;;;10293508;28;20240;-75
2023/07/01 02:22:22;;;;;;;5.20;4.53;;;;;;;;;;10278756;28;20837;-75
2023/07/01 02:27:23;;;;;;;6.50;4.75;;;;;;;;;;10280032;28;21005;-77
2023/07/01 02:32:25;;;;;;;4.85;4.50;;;;;;;;;;10277360;28;20835;-75
2023/07/01 02:37:26;;;;;;;5.55;4.18;;;;;;;;;;10278302;28;20707;-75
2023/07/01 02:42:27;;;;;;;4.40;4.00;;;;;;;;;;10279610;28;20233;-76
2023/07/01 02:47:28;;;;;;;4.30;3.47;;;;;;;;;;10268213;28;20224;-75
2023/07/01 02:52:29;;;;;;;4.13;3.83;;;;;;;;;;10293875;28;20262;-75
2023/07/01 02:57:30;;;;;;;3.75;3.45;;;;;;;;;;10283119;28;20643;-75
2023/07/01 03:02:31;;;;;;;4.05;3.75;;;;;;;;;;10284052;28;20209;-76
2023/07/01 03:07:32;;;;;;;3.88;3.60;;;;;;;;;;10263642;28;20236;-76
2023/07/01 03:12:33;;;;;;;3.70;3.42;;;;;;;;;;10287904;28;20205;-75
2023/07/01 03:17:34;;;;;;;3.40;3.20;;;;;;;;;;10278416;28;20263;-77
2023/07/01 03:22:35;;;;;;;3.42;3.33;;;;;;;;;;10283311;28;20569;-75
2023/07/01 03:27:37;;;;;;;5.38;3.50;;;;;;;;;;10281856;28;20252;-76
2023/07/01 03:32:38;;;;;;;3.47;3.17;;;;;;;;;;10276067;28;20221;-75
2023/07/01 03:37:40;;;;;;;4.28;3.58;;;;;;;;;;10266921;28;20242;-76
2023/07/01 03:42:41;;;;;;;3.45;3.25;;;;;;;;;;10293427;28;20209;-75
2023/07/01 03:47:43;;;;;;;3.53;3.38;;;;;;;;;;10278460;28;20244;-75
2023/07/01 03:52:44;;;;;;;3.13;3.03;;;;;;;;;;10275972;28;20231;-75
2023/07/01 03:57:45;;;;;;;3.47;3.28;;;;;;;;;;10287558;28;20228;-75
2023/07/01 04:02:49;;;;;;;3.97;3.75;;;;;;;;;;10289690;28;20208;-76
2023/07/01 04:07:50;;;;;;;4.35;3.92;;;;;;;;;;10283056;28;20763;-76
2023/07/01 04:12:52;;;;;;;5.10;3.83;;;;;;;;;;10298323;28;20216;-75
2023/07/01 04:17:53;;;;;;;3.55;3.45;;;;;;;;;;10283118;28;20351;-75
2023/07/01 04:22:55;;;;;;;3.85;3.58;;;;;;;;;;10288480;28;20224;-76
2023/07/01 04:27:56;;;;;;;3.38;3.10;;;;;;;;;;10274955;28;20224;-75
2023/07/01 04:32:57;;;;;;;2.88;2.78;;;;;;;;;;10270128;28;20222;-75
2023/07/01 04:37:58;;;;;;;2.83;2.72;;;;;;;;;;10275124;28;20223;-75
2023/07/01 04:42:59;;;;;;;5.20;3.30;;;;;;;;;;10272895;28;20315;-75
2023/07/01 04:48:00;;;;;;;4.05;2.35;;;;;;;;;;10262771;28;20221;-75
2023/07/01 04:53:02;;;;;;;2.10;2.00;;;;;;;;;;10284943;28;20209;-75
2023/07/01 04:58:03;;;;;;;2.45;2.22;;;;;;;;;;10261625;28;20224;-75
2023/07/01 05:03:04;;;;;;;3.30;2.00;;;;;;;;;;10288824;28;20224;-74
2023/07/01 05:08:05;;;;;;;4.97;2.35;;;;;;;;;;10287798;28;20232;-72
2023/07/01 05:13:06;;;;;;;2.05;1.95;;;;;;;;;;10278931;28;20232;-75
2023/07/01 05:18:08;;;;;;;9.77;2.47;;;;;;;;;;10264640;28;20372;-75
2023/07/01 05:23:09;;;;;;;3.55;2.40;;;;;;;;;;10286453;28;20213;-76
2023/07/01 05:28:10;;;;;;;3.40;2.10;;;;;;;;;;10281354;28;20217;-74
2023/07/01 05:33:11;;;;;;;2.65;1.77;;;;;;;;;;10283490;28;20244;-75
2023/07/01 05:38:13;;;;;;;2.47;2.03;;;;;;;;;;10296234;28;20283;-75
2023/07/01 05:43:14;;;;;;;1.92;1.80;;;;;;;;;;10296780;28;20244;-75
2023/07/01 05:48:15;;;;;;;2.08;1.98;;;;;;;;;;10290701;28;20256;-76
2023/07/01 05:53:16;;;;;;;1.60;1.60;;;;;;;;;;10289762;28;20984;-72
2023/07/01 05:58:17;;;;;;;1.63;1.63;;;;;;;;;;10275347;28;20288;-76
2023/07/01 06:03:18;;;;;;;1.45;1.45;;;;;;;;;;10268637;28;20720;-75
2023/07/01 06:08:19;;;;;;;2.42;0.70;;;;;;;;;;10288328;28;20260;-75
2023/07/01 06:13:20;;;;;;;3.50;1.20;;;;;;;;;;10279099;28;20322;-75
2023/07/01 06:18:21;;;;;;;3.08;1.02;;;;;;;;;;10291921;28;20228;-75
2023/07/01 06:23:22;;;;;;;0.70;0.70;;;;;;;;;;10284563;28;20227;-75
2023/07/01 06:28:23;;;;;;;1.77;0.70;;;;;;;;;;10284884;28;20255;-76
2023/07/01 06:33:24;;;;;;;0.90;0.90;;;;;;;;;;10300813;28;20698;-74
2023/07/01 06:38:25;;;;;;;1.00;0.82;;;;;;;;;;10296234;28;20726;-75
2023/07/01 06:43:26;;;;;;;0.80;0.80;;;;;;;;;;10298924;28;20234;-76
2023/07/01 06:48:27;;;;;;;0.98;0.98;;;;;;;;;;10285832;28;20209;-75
2023/07/01 06:53:28;;;;;;;1.00;1.00;;;;;;;;;;10290338;28;20244;-75
2023/07/01 06:58:29;;;;;;;5.53;0.90;;;;;;;;;;10279355;28;20240;-76
2023/07/01 07:03:30;;;;;;;1.45;0.70;;;;;;;;;;10299674;28;20221;-75
2023/07/01 07:08:31;;;;;;;2.13;0.90;;;;;;;;;;10289517;28;20250;-75
2023/07/01 07:13:32;;;;;;;0.75;0.73;;;;;;;;;;10289340;28;20305;-75
2023/07/01 07:18:33;;;;;;;0.80;0.80;;;;;;;;;;10300244;28;20634;-76
2023/07/01 07:23:34;;;;;;;3.40;0.73;;;;;;;;;;10305411;28;20710;-76
2023/07/01 07:28:38;;;;;;;1.00;1.00;;;;;;;;;;10298309;28;20285;-75
2023/07/01 07:33:39;;;;;;;1.33;0.80;;;;;;;;;;10290243;28;22377;-76
2023/07/01 07:38:40;;;;;;;1.17;1.08;;;;;;;;;;10291846;28;20242;-76
2023/07/01 07:43:41;;;;;;;1.95;0.70;;;;;;;;;;10293555;28;20304;-75
2023/07/01 07:48:42;;;;;;;1.40;0.75;;;;;;;;;;10289323;28;20212;-75
2023/07/01 07:53:43;;;;;;;0.70;0.68;;;;;;;;;;10277399;28;20594;-75
2023/07/01 07:58:45;;;;;;;1.10;1.10;;;;;;;;;;10290153;28;20213;-76
2023/07/01 08:03:46;;;;;;;0.90;0.90;;;;;;;;;;10271082;28;20241;-75
2023/07/01 08:08:47;;;;;;;3.70;0.80;;;;;;;;;;10285625;28;20319;-76
2023/07/01 08:13:48;;;;;;;0.52;0.52;;;;;;;;;;10294985;28;20640;-78
2023/07/01 08:18:49;;;;;;;3.45;0.68;;;;;;;;;;10290511;28;20237;-76
2023/07/01 08:23:50;;;;;;;1.00;0.50;;;;;;;;;;10279767;28;20572;-75
2023/07/01 08:28:51;;;;;;;4.85;0.80;;;;;;;;;;10295668;28;20225;-75
2023/07/01 08:33:52;;;;;;;0.50;0.50;;;;;;;;;;10301402;28;20327;-76
2023/07/01 08:38:53;;;;;;;0.70;0.70;;;;;;;;;;10293531;28;20228;-76
2023/07/01 08:43:54;;;;;;;6.28;0.60;;;;;;;;;;10291938;28;20299;-75
2023/07/01 08:48:57;;;;;;;3.60;0.70;;;;;;;;;;10285262;28;20803;-78
2023/07/01 08:54:00;;;;;;;0.60;0.60;;;;;;;;;;10290818;28;20247;-76
2023/07/01 08:59:01;;;;;;;0.57;0.57;;;;;;;;;;10297406;28;20228;-76
2023/07/01 09:04:02;;;;;;;0.55;0.55;;;;;;;;;;10285794;28;20259;-75
2023/07/01 09:09:03;;;;;;;1.15;0.80;;;;;;;;;;10284595;28;20233;-76
2023/07/01 09:14:04;;;;;;;0.73;0.73;;;;;;;;;;10291466;28;20586;-78
2023/07/01 09:19:16;;;;;;;0.65;0.65;;;;;;;;;;10297364;28;20232;-75
2023/07/01 09:24:17;;;;;;;1.38;0.68;;;;;;;;;;10278101;28;20221;-75
2023/07/01 09:29:21;;;;;;;0.60;0.60;;;;;;;;;;10275594;28;20255;-78
2023/07/01 09:34:23;;;;;;;0.60;0.60;;;;;;;;;;10286718;28;20225;-76
2023/07/01 09:39:32;;;;;;;2.90;0.82;;;;;;;;;;10289171;28;20733;-76
2023/07/01 09:44:33;;;;;;;1.27;0.70;;;;;;;;;;10302745;28;20341;-77
2023/07/01 09:49:38;;;;;;;3.78;0.70;;;;;;;;;;10286790;28;20224;-76
2023/07/01 09:54:42;;;;;;;0.70;0.70;;;;;;;;;;10289434;28;20778;-75
2023/07/01 09:59:43;;;;;;;0.52;0.52;;;;;;;;;;10299350;28;20932;-77
2023/07/01 10:04:44;;;;;;;0.50;0.50;;;;;;;;;;10292498;28;20661;-75
2023/07/01 10:09:46;;;;;;;1.85;0.50;;;;;;;;;;10296289;28;20233;-75
2023/07/01 10:14:50;;;;;;;0.50;0.50;;;;;;;;;;10283925;28;20709;-76
2023/07/01 10:19:51;;;;;;;0.80;0.70;;;;;;;;;;10292775;28;20284;-76
2023/07/01 10:24:56;;;;;;;1.58;0.60;;;;;;;;;;10279723;28;20213;-77
2023/07/01 10:29:57;;;;;;;19.48;0.80;;;;;;;;;;10296044;28;20310;-77
2023/07/01 10:34:58;;;;;;;2.83;0.70;;;;;;;;;;10292315;28;20216;-76
2023/07/01 10:40:00;;;;;;;0.50;0.50;;;;;;;;;;10301044;28;20562;-78
2023/07/01 10:45:10;;;;;;;0.65;0.50;;;;;;;;;;10293288;28;20251;-75
2023/07/01 10:50:12;;;;;;;0.80;0.50;;;;;;;;;;10263610;28;20220;-76
2023/07/01 10:55:32;;;;;;;1.55;0.57;;;;;;;;;;10297922;28;20204;-76
2023/07/01 11:00:36;;;;;;;3.00;0.93;;;;;;;;;;10281039;28;20333;-77
2023/07/01 11:05:54;;;;;;;0.43;0.43;;;;;;;;;;10297740;28;20308;-76
2023/07/01 11:10:55;;;;;;;0.60;0.60;;;;;;;;;;10288410;28;20220;-76
2023/07/01 11:16:05;;;;;;;2.67;0.65;;;;;;;;;;10299152;28;20252;-76
2023/07/01 11:21:06;;;;;;;0.73;0.65;;;;;;;;;;10283639;28;20217;-75
2023/07/01 11:26:07;;;;;;;0.50;0.50;;;;;;;;;;10294425;28;20245;-77
2023/07/01 11:31:12;;;;;;;0.80;0.68;;;;;;;;;;10268494;28;20229;-75
2023/07/01 11:36:17;;;;;;;0.85;0.68;;;;;;;;;;10282811;28;20224;-76
2023/07/01 11:41:20;;;;;;;0.80;0.80;;;;;;;;;;10281905;28;20860;-77
2023/07/01 11:46:32;;;;;;;1.75;0.88;;;;;;;;;;10275233;28;20224;-76
2023/07/01 11:51:40;;;;;;;1.50;0.60;;;;;;;;;;10290314;28;20245;-75
2023/07/01 11:56:42;;;;;;;0.95;0.65;;;;;;;;;;10294834;28;20252;-75
2023/07/01 12:01:43;;;;;;;0.70;0.70;;;;;;;;;;10280270;28;20208;-75
2023/07/01 12:06:45;;;;;;;2.40;0.95;;;;;;;;;;10289717;28;20236;-78
2023/07/01 12:11:47;;;;;;;1.92;0.70;;;;;;;;;;10280119;28;20726;-77
2023/07/01 12:16:52;;;;;;;0.70;0.70;;;;;;;;;;10280253;28;20249;-77
2023/07/01 12:21:54;;;;;;;1.85;0.82;;;;;;;;;;10280189;28;20209;-75
2023/07/01 12:26:56;;;;;;;0.95;0.82;;;;;;;;;;10289735;28;20220;-75
2023/07/01 12:32:00;;;;;;;2.50;0.73;;;;;;;;;;10270776;28;20227;-77
2023/07/01 12:37:02;;;;;;;0.93;0.77;;;;;;;;;;10299818;28;20268;-75
2023/07/01 12:42:03;;;;;;;0.77;0.70;;;;;;;;;;10271052;28;20218;-75
2023/07/01 12:47:07;;;;;;;1.13;0.73;;;;;;;;;;10270552;28;20224;-75
2023/07/01 12:52:08;;;;;;;1.00;0.80;;;;;;;;;;10286798;28;20574;-73
2023/07/01 12:57:09;;;;;;;0.80;0.80;;;;;;;;;;10260740;28;20220;-74
2023/07/01 13:02:12;;;;;;;2.20;0.90;;;;;;;;;;10294658;28;20314;-77
2023/07/01 13:07:17;;;;;;;0.60;0.60;;;;;;;;;;10293909;28;20315;-75
2023/07/01 13:12:22;;;;;;;0.55;0.52;;;;;;;;;;10279424;28;20220;-75
2023/07/01 13:17:37;;;;;;;0.73;0.73;;;;;;;;;;10294279;28;20228;-72
2023/07/01 13:22:38;;;;;;;0.80;0.80;;;;;;;;;;10279712;28;20221;-75
2023/07/01 13:27:41;;;;;;;1.52;0.70;;;;;;;;;;10275554;28;20221;-75
2023/07/01 13:32:42;;;;;;;5.47;0.65;;;;;;;;;;10266429;28;20216;-74
2023/07/01 13:37:43;;;;;;;0.60;0.60;;;;;;;;;;10264252;28;20216;-72
2023/07/01 13:42:46;;;;;;;0.80;0.80;;;;;;;;;;10290424;28;20726;-72
2023/07/01 13:47:48;;;;;;;0.75;0.75;;;;;;;;;;10295470;28;20592;-73
2023/07/01 13:52:50;;;;;;;2.33;0.60;;;;;;;;;;10300028;28;20208;-73
2023/07/01 13:57:52;;;;;;;3.80;0.90;;;;;;;;;;10298548;28;20228;-73
2023/07/01 14:02:53;;;;;;;1.60;0.85;;;;;;;;;;10279115;28;20240;-73
2023/07/01 14:07:58;;;;;;;0.52;0.52;;;;;;;;;;10277773;28;20797;-75
2023/07/01 14:12:59;;;;;;;0.73;0.70;;;;;;;;;;10293026;28;20224;-74
2023/07/01 14:18:00;;;;;;;1.15;0.68;;;;;;;;;;10266830;28;20335;-74
2023/07/01 14:23:04;;;;;;;1.52;1.30;;;;;;;;;;10287177;28;20799;-74
2023/07/01 14:28:09;;;;;;;0.88;0.88;;;;;;;;;;10282859;28;20220;-76
2023/07/01 14:33:10;;;;;;;0.98;0.98;;;;;;;;;;10286324;28;20228;-72
2023/07/01 14:38:11;;;;;;;4.63;0.98;;;;;;;;;;10258240;28;20225;-74
2023/07/01 14:43:13;;;;;;;1.42;0.90;;;;;;;;;;10283539;28;20699;-75
2023/07/01 14:48:14;;;;;;;0.60;0.60;;;;;;;;;;10282358;28;20229;-73
2023/07/01 14:53:15;;;;;;;0.73;0.70;;;;;;;;;;10291130;28;20224;-74
2023/07/01 14:58:16;;;;;;;1.98;0.60;;;;;;;;;;10301780;28;20233;-75
2023/07/01 15:03:17;;;;;;;0.75;0.70;;;;;;;;;;10284671;28;20204;-72
2023/07/01 15:08:18;;;;;;;0.65;0.65;;;;;;;;;;10285049;28;20775;-72
2023/07/01 15:13:19;;;;;;;2.10;0.95;;;;;;;;;;10306568;28;20220;-73
2023/07/01 15:18:20;;;;;;;2.92;0.63;;;;;;;;;;10300921;28;20233;-72
2023/07/01 15:23:21;;;;;;;1.45;0.47;;;;;;;;;;10291277;28;20954;-76
2023/07/01 15:28:22;;;;;;;0.47;0.47;;;;;;;;;;10288786;28;20216;-80
2023/07/01 15:33:23;;;;;;;0.93;0.80;;;;;;;;;;10289002;28;20229;-74
2023/07/01 15:38:24;;;;;;;1.00;1.00;;;;;;;;;;10292974;28;20229;-74
2023/07/01 15:43:25;;;;;;;0.60;0.60;;;;;;;;;;10291600;28;20252;-74
2023/07/01 15:48:28;;;;;;;4.97;0.85;;;;;;;;;;10292285;28;20221;-77
2023/07/01 15:53:29;;;;;;;1.25;0.90;;;;;;;;;;10283522;28;20336;-73
2023/07/01 15:58:30;;;;;;;0.60;0.60;;;;;;;;;;10268573;28;20224;-76
2023/07/01 16:03:31;;;;;;;1.17;0.93;;;;;;;;;;10268853;28;20216;-75
2023/07/01 16:08:32;;;;;;;0.70;0.70;;;;;;;;;;10287377;28;20240;-73
2023/07/01 16:13:37;;;;;;;5.63;4.05;;;;;;;;;;10276076;28;21161;-73
2023/07/01 16:18:43;;;;;;;1.95;1.75;;;;;;;;;;10279339;28;20316;-74
2023/07/01 16:23:51;;;;;;;3.28;1.55;;;;;;;;;;10286620;28;20278;-73
2023/07/01 16:28:52;;;;;;;0.60;0.60;;;;;;;;;;10286056;28;20318;-73
2023/07/01 16:33:55;;;;;;;0.77;0.77;;;;;;;;;;10265250;28;20217;-75
2023/07/01 16:38:59;;;;;;;0.60;0.60;;;;;;;;;;10279324;28;20245;-73
2023/07/01 16:44:01;;;;;;;0.60;0.60;;;;;;;;;;10283200;28;20289;-74
2023/07/01 16:49:04;;;;;;;0.88;0.88;;;;;;;;;;10265730;28;20251;-78
2023/07/01 16:54:10;;;;;;;0.60;0.60;;;;;;;;;;10288267;28;20227;-73
2023/07/01 16:59:16;;;;;;;0.77;0.77;;;;;;;;;;10284885;28;20225;-73
2023/07/01 17:04:20;;;;;;;0.60;0.60;;;;;;;;;;10288765;28;20244;-75
2023/07/01 17:09:37;;;;;;;0.85;0.70;;;;;;;;;;10287564;28;20233;-74
2023/07/01 17:14:48;;;;;;;0.50;0.50;;;;;;;;;;10287495;28;20592;-71
2023/07/01 17:19:49;;;;;;;0.80;0.80;;;;;;;;;;10282589;28;20311;-73
2023/07/01 17:24:50;;;;;;;0.60;0.60;;;;;;;;;;10275630;28;20706;-74
2023/07/01 17:29:51;;;;;;;0.85;0.85;;;;;;;;;;10281065;28;20406;-72
2023/07/01 17:35:08;;;;;;;0.60;0.60;;;;;;;;;;10274688;28;20220;-73
2023/07/01 17:40:11;;;;;;;0.40;0.40;;;;;;;;;;10254918;28;20760;-73
2023/07/01 17:45:12;;;;;;;0.63;0.63;;;;;;;;;;10264813;28;20673;-73
2023/07/01 17:50:13;;;;;;;0.60;0.60;;;;;;;;;;10273773;28;20215;-76
2023/07/01 17:55:15;;;;;;;1.35;0.70;;;;;;;;;;10266259;28;20200;-77
2023/07/01 18:00:16;;;;;;;0.60;0.60;;;;;;;;;;10277009;28;20224;-74
2023/07/01 18:05:17;;;;;;;0.50;0.50;;;;;;;;;;10267588;28;20263;-75
2023/07/01 18:10:18;;;;;;;0.40;0.40;;;;;;;;;;10284468;28;20855;-79
2023/07/01 18:15:19;;;;;;;0.40;0.40;;;;;;;;;;10289649;28;20219;-75
2023/07/01 18:20:20;;;;;;;0.85;0.57;;;;;;;;;;10289459;28;20812;-77
2023/07/01 18:25:21;;;;;;;0.70;0.60;;;;;;;;;;10287918;28;20576;-78
2023/07/01 18:30:22;;;;;;;0.60;0.60;;;;;;;;;;10264752;28;20718;-81
2023/07/01 18:35:23;;;;;;;0.50;0.50;;;;;;;;;;10286784;28;20267;-75
2023/07/01 18:40:24;;;;;;;0.50;0.50;;;;;;;;;;10292532;28;20303;-78
2023/07/01 18:45:25;;;;;;;0.40;0.40;;;;;;;;;;10275652;28;20213;-78
2023/07/01 18:50:26;;;;;;;0.30;0.30;;;;;;;;;;10278237;28;20225;-73
2023/07/01 18:55:27;;;;;;;0.30;0.30;;;;;;;;;;10272484;28;20236;-79
2023/07/01 19:00:28;;;;;;;0.20;0.20;;;;;;;;;;10273928;28;20220;-76
2023/07/01 19:05:29;;;;;;;0.30;0.30;;;;;;;;;;10286980;28;20205;-76
2023/07/01 19:10:30;;;;;;;0.20;0.20;;;;;;;;;;10275659;28;20236;-75
2023/07/01 19:15:31;;;;;;;0.25;0.25;;;;;;;;;;10270113;28;20214;-77
2023/07/01 19:20:39;;;;;;;0.20;0.20;;;;;;;;;;10287341;28;20715;-75
2023/07/01 19:25:40;;;;;;;0.25;0.25;;;;;;;;;;10286956;28;20220;-77
2023/07/01 19:30:41;;;;;;;0.20;0.20;;;;;;;;;;10272745;28;20275;-79
2023/07/01 19:35:42;;;;;;;0.20;0.20;;;;;;;;;;10284762;28;20844;-77
2023/07/01 19:40:43;;;;;;;0.20;0.20;;;;;;;;;;10271226;28;20320;-76
2023/07/01 19:45:44;;;;;;;0.20;0.20;;;;;;;;;;10266588;28;20212;-79
2023/07/01 19:50:45;;;;;;;0.20;0.20;;;;;;;;;;10257503;28;20223;-76
2023/07/01 19:55:46;;;;;;;0.20;0.20;;;;;;;;;;10282634;28;20909;-78
2023/07/01 20:00:47;;;;;;;0.28;0.28;;;;;;;;;;10284961;28;20220;-78
2023/07/01 20:05:48;;;;;;;0.30;0.30;;;;;;;;;;10270357;28;20318;-78
2023/07/01 20:10:49;;;;;;;0.30;0.30;;;;;;;;;;10280639;28;20209;-80
2023/07/01 20:15:50;;;;;;;0.30;0.30;;;;;;;;;;10274169;28;20221;-76
2023/07/01 20:20:52;;;;;;;0.20;0.20;;;;;;;;;;10289222;28;20205;-75
2023/07/01 20:25:53;;;;;;;0.30;0.30;;;;;;;;;;10290788;28;20812;-76
2023/07/01 20:30:54;;;;;;;0.30;0.30;;;;;;;;;;10275236;28;20225;-78
2023/07/01 20:35:55;;;;;;;0.28;0.28;;;;;;;;;;10274948;28;20220;-76
2023/07/01 20:40:56;;;;;;;0.40;0.40;;;;;;;;;;10276871;28;20290;-75
2023/07/01 20:45:57;;;;;;;0.35;0.35;;;;;;;;;;10290850;28;20313;-79
2023/07/01 20:50:58;;;;;;;0.40;0.40;;;;;;;;;;10284770;28;20220;-75
2023/07/01 20:55:59;;;;;;;0.35;0.35;;;;;;;;;;10274904;28;20223;-78
2023/07/01 21:01:00;;;;;;;0.50;0.50;;;;;;;;;;10283293;28;20224;-75
2023/07/01 21:06:01;;;;;;;0.38;0.38;;;;;;;;;;10284685;28;20243;-75
2023/07/01 21:11:02;;;;;;;0.30;0.30;;;;;;;;;;10271703;28;20225;-75
2023/07/01 21:16:03;;;;;;;0.40;0.40;;;;;;;;;;10293402;28;20232;-75
2023/07/01 21:21:04;;;;;;;3.22;0.40;;;;;;;;;;10294032;28;20711;-78
2023/07/01 21:26:05;;;;;;;0.40;0.40;;;;;;;;;;10277425;28;20336;-75
2023/07/01 21:31:06;;;;;;;0.30;0.30;;;;;;;;;;10273696;28;20217;-77
2023/07/01 21:36:07;;;;;;;0.30;0.30;;;;;;;;;;10289992;28;20248;-76
2023/07/01 21:41:09;;;;;;;0.30;0.30;;;;;;;;;;10275806;28;20218;-75
2023/07/01 21:46:10;;;;;;;1.50;0.30;;;;;;;;;;10287919;28;20339;-77
2023/07/01 21:51:11;;;;;;;0.32;0.32;;;;;;;;;;10274586;28;20216;-77
2023/07/01 21:56:16;;;;;;;0.52;0.30;;;;;;;;;;10288032;28;20906;-77
2023/07/01 22:01:30;;;;;;;0.32;0.32;;;;;;;;;;10277201;28;20227;-75
2023/07/01 22:06:52;;;;;;;0.43;0.43;;;;;;;;;;10287060;28;20241;-76
2023/07/01 22:11:53;;;;;;;0.40;0.40;;;;;;;;;;10290878;28;20717;-76
2023/07/01 22:16:54;;;;;;;0.40;0.40;;;;;;;;;;10288988;28;20606;-78
2023/07/01 22:21:55;;;;;;;0.60;0.60;;;;;;;;;;10277911;28;20278;-76
2023/07/01 22:26:56;;;;;;;0.65;0.63;;;;;;;;;;10262648;28;20217;-76
2023/07/01 22:31:57;;;;;;;0.73;0.73;;;;;;;;;;10267758;28;20224;-77
2023/07/01 22:36:58;;;;;;;1.75;0.60;;;;;;;;;;10278711;28;20217;-76
2023/07/01 22:41:59;;;;;;;0.60;0.60;;;;;;;;;;10289524;28;20271;-76
2023/07/01 22:47:00;;;;;;;0.60;0.60;;;;;;;;;;10276449;28;20263;-77
2023/07/01 22:52:01;;;;;;;0.82;0.82;;;;;;;;;;10292599;28;20216;-78
2023/07/01 22:57:02;;;;;;;0.93;0.93;;;;;;;;;;10275787;28;20578;-77
2023/07/01 23:02:03;;;;;;;0.90;0.90;;;;;;;;;;10291768;28;20236;-76
2023/07/01 23:07:04;;;;;;;1.40;0.90;;;;;;;;;;10282618;28;20263;-77
2023/07/01 23:12:06;;;;;;;0.90;0.90;;;;;;;;;;10284362;28;20217;-76
2023/07/01 23:17:07;;;;;;;1.25;1.15;;;;;;;;;;10276159;28;20597;-78
2023/07/01 23:22:11;;;;;;;1.30;1.10;;;;;;;;;;10275646;28;20217;-78
2023/07/01 23:27:16;;;;;;;0.70;0.70;;;;;;;;;;10279209;28;20214;-74
2023/07/01 23:32:21;;;;;;;0.80;0.80;;;;;;;;;;10288021;28;20219;-75
2023/07/01 23:37:22;;;;;;;1.15;0.98;;;;;;;;;;10273193;28;20611;-78
2023/07/01 23:42:23;;;;;;;0.90;0.90;;;;;;;;;;10275156;28;20244;-77
2023/07/01 23:47:25;;;;;;;1.05;1.05;;;;;;;;;;10291546;28;20291;-76
2023/07/01 23:52:26;;;;;;;1.00;1.00;;;;;;;;;;10268991;28;20213;-78
2023/07/01 23:57:27;;;;;;;1.77;1.55;;;;;;;;;;10277293;28;20718;-76
